Time;durP1;ratioP1;P1;durP2;ratioP2;P2;SDS_P1;SDS_P2;PMS_P1;PMS_P2;Temp;Humidity;BMP_temperature;BMP_pressure;BME280_temperature;BME280_humidity;BME280_pressure;Samples;Min_cycle;Max_cycle;Signal;HPM_P1;HPM_P2
2021/03/25 00:05:57;;;;;;;7.67;2.67;;;4.70;99.90;;;;;;20828179;28;20033;-77
2021/03/25 00:15:58;;;;;;;5.13;2.53;;;4.50;99.90;;;;;;20826684;28;20295;-77
2021/03/25 00:25:59;;;;;;;6.30;2.80;;;4.50;99.90;;;;;;20825066;28;20033;-77
2021/03/25 00:36:00;;;;;;;5.00;2.58;;;4.40;99.90;;;;;;20746630;28;20030;-76
2021/03/25 00:46:01;;;;;;;6.30;2.57;;;4.40;99.90;;;;;;20745406;28;20040;-77
2021/03/25 00:56:03;;;;;;;8.07;2.70;;;4.20;99.90;;;;;;20745729;28;20037;-77
2021/03/25 01:06:04;;;;;;;6.10;2.88;;;4.10;99.90;;;;;;20748357;28;20032;-79
2021/03/25 01:16:08;;;;;;;6.00;2.92;;;4.10;99.90;;;;;;20758693;28;20030;-78
2021/03/25 01:26:09;;;;;;;9.45;2.85;;;3.90;99.90;;;;;;20760914;28;20042;-76
2021/03/25 01:36:11;;;;;;;6.07;2.55;;;3.90;99.90;;;;;;20758646;28;20061;-78
2021/03/25 01:46:33;;;;;;;5.25;2.92;;;3.80;99.90;;;;;;20771377;28;20137;-78
2021/03/25 01:56:49;;;;;;;8.50;3.20;;;3.80;99.90;;;;;;20767272;28;20037;-78
2021/03/25 02:06:59;;;;;;;5.55;2.78;;;3.60;99.90;;;;;;20764270;28;20065;-77
2021/03/25 02:17:23;;;;;;;6.50;3.00;;;3.60;99.90;;;;;;20744334;28;20030;-78
2021/03/25 02:27:53;;;;;;;6.28;3.15;;;3.50;99.90;;;;;;20754845;28;20076;-77
2021/03/25 02:38:07;;;;;;;6.70;3.13;;;3.30;99.90;;;;;;20888450;22;20520;-77
2021/03/25 02:48:22;;;;;;;7.05;3.78;;;3.30;99.90;;;;;;20921435;28;20071;-77
2021/03/25 02:58:29;;;;;;;7.18;3.70;;;3.20;99.90;;;;;;20903217;28;20037;-77
2021/03/25 03:08:43;;;;;;;6.53;2.83;;;3.10;99.90;;;;;;20918515;28;20033;-77
2021/03/25 03:18:56;;;;;;;6.00;3.78;;;3.00;99.90;;;;;;20917394;28;20579;-78
2021/03/25 03:29:04;;;;;;;7.13;3.38;;;2.90;99.90;;;;;;20902822;28;20060;-77
2021/03/25 03:39:11;;;;;;;9.43;4.30;;;2.90;99.90;;;;;;20918319;28;20506;-77
2021/03/25 03:49:45;;;;;;;13.73;5.68;;;2.80;99.90;;;;;;20915358;28;20495;-77
2021/03/25 04:00:12;;;;;;;9.27;5.05;;;2.70;99.90;;;;;;20896775;28;20132;-78
2021/03/25 04:10:38;;;;;;;15.38;5.25;;;2.50;99.90;;;;;;20916126;28;20033;-79
2021/03/25 04:20:49;;;;;;;11.13;5.03;;;2.60;99.90;;;;;;20913603;28;20120;-77
2021/03/25 04:30:59;;;;;;;10.52;4.53;;;2.50;99.90;;;;;;20913389;28;20028;-77
2021/03/25 04:41:01;;;;;;;11.50;4.72;;;2.50;99.90;;;;;;20913365;28;20398;-77
2021/03/25 04:51:14;;;;;;;12.85;5.80;;;2.40;99.90;;;;;;20914562;28;20029;-77
2021/03/25 05:01:23;;;;;;;11.07;5.40;;;2.30;99.90;;;;;;20909710;28;20040;-76
2021/03/25 05:11:26;;;;;;;11.82;5.53;;;2.20;99.90;;;;;;20914983;28;20075;-77
2021/03/25 05:21:55;;;;;;;9.20;5.38;;;2.20;99.90;;;;;;20928009;28;20025;-78
2021/03/25 05:31:57;;;;;;;11.15;5.20;;;2.10;99.90;;;;;;20920795;28;20048;-77
2021/03/25 05:42:04;;;;;;;8.20;5.05;;;2.20;99.90;;;;;;20925893;28;20056;-78
2021/03/25 05:52:32;;;;;;;12.20;5.45;;;2.30;99.90;;;;;;20930896;28;20029;-76
2021/03/25 06:02:38;;;;;;;9.20;4.90;;;2.40;99.90;;;;;;20910291;28;20029;-78
2021/03/25 06:12:48;;;;;;;9.55;5.10;;;2.50;99.90;;;;;;20924337;28;20097;-78
2021/03/25 06:22:48;;;;;;;9.20;4.93;;;2.90;99.90;;;;;;20927581;28;20444;-78
2021/03/25 06:32:56;;;;;;;11.40;5.53;;;3.40;99.90;;;;;;20929188;28;20036;-78
2021/03/25 06:43:15;;;;;;;12.35;5.25;;;3.60;99.90;;;;;;20928035;28;20427;-77
2021/03/25 06:53:29;;;;;;;12.25;5.45;;;4.00;99.90;;;;;;20927211;28;20487;-78
2021/03/25 07:03:31;;;;;;;9.57;5.15;;;5.00;99.90;;;;;;20926109;28;20104;-78
2021/03/25 07:13:32;;;;;;;;;;;6.10;99.90;;;;;;20901378;28;20037;-78
2021/03/25 07:23:43;;;;;;;13.33;6.90;;;6.90;99.90;;;;;;20922349;28;19909;-77
2021/03/25 07:33:44;;;;;;;10.07;5.23;;;7.00;99.90;;;;;;20922949;28;20394;-78
2021/03/25 07:44:04;;;;;;;8.33;4.90;;;7.30;99.90;;;;;;20921148;28;20044;-77
2021/03/25 07:54:15;;;;;;;17.80;7.53;;;7.70;99.90;;;;;;20921958;28;20033;-77
2021/03/25 08:04:27;;;;;;;14.30;7.13;;;8.20;99.90;;;;;;20918838;28;20418;-78
2021/03/25 08:14:34;;;;;;;13.38;8.00;;;8.30;99.90;;;;;;20905901;28;20041;-75
2021/03/25 08:25:03;;;;;;;17.92;6.95;;;9.10;99.90;;;;;;20905919;28;20390;-78
2021/03/25 08:35:36;;;;;;;15.75;7.55;;;10.10;99.90;;;;;;20892078;22;20053;-78
2021/03/25 08:45:55;;;;;;;11.57;6.40;;;11.00;99.90;;;;;;20861082;28;20029;-77
2021/03/25 08:55:58;;;;;;;11.75;6.03;;;12.00;99.90;;;;;;20907157;28;20079;-77
2021/03/25 09:06:08;;;;;;;15.18;6.68;;;13.60;99.90;;;;;;20910685;28;20380;-78
2021/03/25 09:16:25;;;;;;;11.40;6.15;;;13.60;99.90;;;;;;20908863;28;20029;-79
2021/03/25 09:26:26;;;;;;;11.77;6.10;;;13.40;99.90;;;;;;20911534;28;20538;-78
2021/03/25 09:36:27;;;;;;;13.20;5.65;;;15.40;99.90;;;;;;20925057;28;20057;-79
2021/03/25 09:46:53;;;;;;;17.17;6.45;;;16.50;99.90;;;;;;20928583;28;20033;-78
2021/03/25 09:57:29;;;;;;;14.25;7.18;;;14.10;99.90;;;;;;20918133;28;20036;-79
2021/03/25 10:07:40;;;;;;;11.07;6.25;;;16.10;99.90;;;;;;20922132;28;20495;-79
2021/03/25 10:17:47;;;;;;;11.73;6.28;;;17.40;99.90;;;;;;20910176;28;20041;-78
2021/03/25 10:27:49;;;;;;;10.07;5.53;;;16.20;99.90;;;;;;20924111;28;20125;-79
2021/03/25 10:37:53;;;;;;;11.98;5.90;;;16.50;99.90;;;;;;20928154;28;20037;-80
2021/03/25 10:48:04;;;;;;;16.20;5.90;;;16.40;99.90;;;;;;20915717;28;20462;-79
2021/03/25 10:58:07;;;;;;;11.77;5.15;;;17.70;99.90;;;;;;20945692;28;20049;-79
2021/03/25 11:08:30;;;;;;;9.32;5.30;;;18.60;98.30;;;;;;20945699;28;20049;-79
2021/03/25 11:18:33;;;;;;;8.02;3.85;;;18.50;97.50;;;;;;20925731;28;20384;-80
2021/03/25 11:28:37;;;;;;;5.40;2.15;;;16.80;96.70;;;;;;20930791;28;20031;-81
2021/03/25 11:38:44;;;;;;;5.40;3.03;;;18.80;95.10;;;;;;20933190;28;20577;-79
2021/03/25 11:48:59;;;;;;;9.98;2.90;;;18.40;93.90;;;;;;20934614;28;20119;-77
2021/03/25 11:59:12;;;;;;;8.60;3.53;;;17.20;94.50;;;;;;20896275;28;20041;-78
2021/03/25 12:09:18;;;;;;;6.05;3.08;;;17.90;94.60;;;;;;20917810;28;20025;-79
2021/03/25 12:19:19;;;;;;;5.60;2.60;;;18.20;94.40;;;;;;20917030;28;20254;-79
2021/03/25 12:29:20;;;;;;;13.05;2.67;;;18.40;94.20;;;;;;20945580;28;20036;-79
2021/03/25 12:39:21;;;;;;;6.25;2.97;;;18.00;94.20;;;;;;20905512;28;20083;-79
2021/03/25 12:49:23;;;;;;;5.57;2.47;;;18.70;93.90;;;;;;20892581;28;20053;-80
2021/03/25 12:59:25;;;;;;;5.28;3.00;;;18.00;93.10;;;;;;20912612;28;20514;-79
2021/03/25 13:09:26;;;;;;;7.60;3.35;;;18.60;94.30;;;;;;20914309;28;20043;-79
2021/03/25 13:19:27;;;;;;;5.93;2.67;;;19.40;92.00;;;;;;20911102;28;20108;-79
2021/03/25 13:29:28;;;;;;;5.28;2.90;;;18.10;92.60;;;;;;20921913;28;20086;-79
2021/03/25 13:39:29;;;;;;;8.17;2.80;;;18.40;93.10;;;;;;20923270;28;20040;-79
2021/03/25 13:49:30;;;;;;;7.00;3.57;;;18.40;93.20;;;;;;20916642;28;20033;-79
2021/03/25 13:59:31;;;;;;;5.97;3.13;;;18.50;92.70;;;;;;20918654;28;20050;-79
2021/03/25 14:09:32;;;;;;;5.05;3.00;;;18.20;92.60;;;;;;20938341;28;20058;-79
2021/03/25 14:19:33;;;;;;;8.32;2.90;;;18.80;92.20;;;;;;20926512;28;20592;-78
2021/03/25 14:29:34;;;;;;;4.20;2.00;;;17.60;90.80;;;;;;20893037;28;20025;-77
2021/03/25 14:39:35;;;;;;;3.22;1.60;;;18.20;83.10;;;;;;20918823;22;20049;-77
2021/03/25 14:49:35;;;;;;;6.18;1.70;;;18.50;84.40;;;;;;20919292;28;20514;-77
2021/03/25 14:59:36;;;;;;;5.15;2.47;;;18.10;82.80;;;;;;20911186;28;20048;-78
2021/03/25 15:09:37;;;;;;;5.38;2.85;;;17.60;83.50;;;;;;20919365;28;20025;-77
2021/03/25 15:19:38;;;;;;;4.53;2.65;;;18.10;84.70;;;;;;20919132;28;20156;-77
2021/03/25 15:29:39;;;;;;;5.25;3.08;;;17.60;84.80;;;;;;20915011;28;20032;-77
2021/03/25 15:39:40;;;;;;;8.88;3.17;;;17.60;86.70;;;;;;20901240;28;20041;-77
2021/03/25 15:49:40;;;;;;;16.73;10.43;;;17.80;88.00;;;;;;20906213;28;20067;-78
2021/03/25 15:59:41;;;;;;;7.10;3.25;;;17.50;90.30;;;;;;20896747;28;20478;-77
2021/03/25 16:09:42;;;;;;;6.53;3.47;;;16.90;89.80;;;;;;20899093;28;20088;-76
2021/03/25 16:19:43;;;;;;;9.75;3.95;;;16.30;91.10;;;;;;20895276;28;20037;-78
2021/03/25 16:29:44;;;;;;;7.15;3.05;;;16.00;91.30;;;;;;20897243;28;20037;-77
2021/03/25 16:39:45;;;;;;;7.28;3.42;;;15.90;91.70;;;;;;20895661;28;20601;-77
2021/03/25 16:49:48;;;;;;;7.72;4.15;;;15.90;92.40;;;;;;20900811;28;20122;-77
2021/03/25 16:59:49;;;;;;;8.43;3.85;;;15.50;92.80;;;;;;20897112;28;20043;-77
2021/03/25 17:09:50;;;;;;;8.32;3.13;;;15.30;93.30;;;;;;20902896;28;20021;-77
2021/03/25 17:19:50;;;;;;;9.48;4.18;;;14.80;94.20;;;;;;20898507;28;20131;-78
2021/03/25 17:29:51;;;;;;;6.90;3.00;;;14.60;95.00;;;;;;20911171;28;20033;-78
2021/03/25 17:39:52;;;;;;;5.20;2.83;;;14.00;95.80;;;;;;20918507;28;20047;-77
2021/03/25 17:49:53;;;;;;;6.75;3.42;;;13.60;98.80;;;;;;20930753;28;20057;-78
2021/03/25 17:59:54;;;;;;;7.05;3.30;;;12.70;99.90;;;;;;20919353;28;20041;-77
2021/03/25 18:09:54;;;;;;;9.20;3.40;;;12.40;99.90;;;;;;20916924;28;20063;-79
2021/03/25 18:19:55;;;;;;;7.40;3.30;;;11.70;99.90;;;;;;20891657;28;20094;-77
2021/03/25 18:29:56;;;;;;;12.45;5.05;;;11.60;99.90;;;;;;20905395;28;20033;-77
2021/03/25 18:39:57;;;;;;;7.82;3.88;;;11.40;99.90;;;;;;20902042;28;20064;-77
2021/03/25 18:49:58;;;;;;;7.90;3.55;;;11.30;99.90;;;;;;20899971;28;20808;-76
2021/03/25 18:59:59;;;;;;;10.57;4.40;;;10.70;99.90;;;;;;20894535;28;20024;-76
2021/03/25 19:10:00;;;;;;;9.75;4.28;;;10.30;99.90;;;;;;20891933;28;20112;-75
2021/03/25 19:20:01;;;;;;;8.10;4.15;;;10.20;99.90;;;;;;20894920;28;20064;-77
2021/03/25 19:30:04;;;;;;;9.47;5.07;;;9.80;99.90;;;;;;20894236;28;20075;-77
2021/03/25 19:40:07;;;;;;;8.85;5.68;;;9.50;99.90;;;;;;20899456;28;20039;-78
2021/03/25 19:50:10;;;;;;;11.77;5.88;;;8.80;99.90;;;;;;20892699;28;20058;-79
2021/03/25 20:00:12;;;;;;;9.70;4.97;;;8.90;99.90;;;;;;20871071;28;20021;-78
2021/03/25 20:10:13;;;;;;;11.25;5.97;;;9.00;99.90;;;;;;20896164;28;20039;-77
2021/03/25 20:20:14;;;;;;;12.00;4.90;;;8.90;99.90;;;;;;20895396;28;20036;-76
2021/03/25 20:30:19;;;;;;;13.87;5.60;;;8.50;99.90;;;;;;20898564;28;20025;-78
2021/03/25 20:40:26;;;;;;;13.20;5.68;;;8.40;99.90;;;;;;20956489;22;20052;-77
2021/03/25 20:50:27;;;;;;;12.38;5.07;;;7.90;99.90;;;;;;20877202;28;20116;-77
2021/03/25 21:00:32;;;;;;;11.30;4.65;;;8.10;99.90;;;;;;20807206;28;20037;-77
2021/03/25 21:10:33;;;;;;;14.25;5.15;;;8.40;99.90;;;;;;20804042;28;20033;-77
2021/03/25 21:20:34;;;;;;;11.47;5.60;;;8.30;99.90;;;;;;20819137;28;20035;-76
2021/03/25 21:30:38;;;;;;;9.97;5.13;;;7.80;99.90;;;;;;20873791;28;20063;-77
2021/03/25 21:40:39;;;;;;;12.10;5.38;;;7.80;99.90;;;;;;20877404;28;20063;-77
2021/03/25 21:50:41;;;;;;;9.18;4.57;;;7.60;99.90;;;;;;20966607;28;20028;-76
2021/03/25 22:00:42;;;;;;;10.48;4.70;;;7.50;99.90;;;;;;21009730;28;20119;-76
2021/03/25 22:10:43;;;;;;;15.63;5.30;;;7.20;99.90;;;;;;21010766;28;20395;-76
2021/03/25 22:20:44;;;;;;;10.17;5.27;;;6.70;99.90;;;;;;20987868;28;20029;-76
2021/03/25 22:30:45;;;;;;;12.43;6.00;;;6.50;99.90;;;;;;20983308;28;20128;-76
2021/03/25 22:40:48;;;;;;;14.17;4.90;;;6.40;99.90;;;;;;21000711;28;20486;-77
2021/03/25 22:50:51;;;;;;;12.70;5.68;;;6.40;99.90;;;;;;20999166;28;20043;-77
2021/03/25 23:01:01;;;;;;;15.30;6.55;;;6.00;99.90;;;;;;21002978;28;20033;-78
2021/03/25 23:11:05;;;;;;;13.32;6.05;;;6.00;99.90;;;;;;21002778;28;20541;-77
2021/03/25 23:21:06;;;;;;;11.60;6.07;;;6.20;99.90;;;;;;21017835;28;20024;-77
2021/03/25 23:31:09;;;;;;;24.80;10.68;;;6.10;99.90;;;;;;20999419;28;20440;-77
2021/03/25 23:41:16;;;;;;;13.65;7.10;;;6.30;99.90;;;;;;20995332;28;20043;-78
2021/03/25 23:51:17;;;;;;;14.98;6.72;;;6.30;99.90;;;;;;20996168;28;20056;-77
